createdAt,value
2023-03-26T00:01:02.029Z,1.85
2023-03-26T00:03:29.945Z,2.80
2023-03-26T00:06:04.009Z,2.20
2023-03-26T00:08:30.890Z,2.40
2023-03-26T00:10:58.053Z,2.63
2023-03-26T00:13:25.299Z,2.65
2023-03-26T00:15:53.090Z,2.83
2023-03-26T00:18:22.205Z,2.80
2023-03-26T00:20:48.616Z,3.40
2023-03-26T00:23:15.003Z,3.10
2023-03-26T00:25:43.292Z,2.67
2023-03-26T00:28:09.996Z,3.03
2023-03-26T00:30:36.445Z,2.83
2023-03-26T00:33:03.421Z,2.55
2023-03-26T00:35:30.276Z,2.40
2023-03-26T00:37:58.310Z,3.08
2023-03-26T00:40:25.178Z,2.22
2023-03-26T00:42:51.766Z,2.60
2023-03-26T00:45:21.247Z,1.95
2023-03-26T00:47:47.973Z,2.30
2023-03-26T00:50:17.614Z,1.88
2023-03-26T00:52:46.095Z,2.03
2023-03-26T00:55:13.197Z,2.38
2023-03-26T00:57:40.497Z,2.05
2023-03-26T01:00:11.067Z,2.35
2023-03-26T01:02:38.064Z,2.55
2023-03-26T01:05:36.393Z,2.20
2023-03-26T01:08:30.619Z,2.20
2023-03-26T01:11:03.095Z,1.85
2023-03-26T01:13:33.532Z,1.58
2023-03-26T01:16:01.986Z,1.58
2023-03-26T01:18:33.944Z,2.60
2023-03-26T01:21:05.436Z,1.63
2023-03-26T01:23:41.701Z,2.05
2023-03-26T01:26:18.676Z,1.50
2023-03-26T01:28:46.793Z,1.63
2023-03-26T01:31:30.126Z,1.65
2023-03-26T01:34:30.595Z,1.63
2023-03-26T01:37:08.865Z,2.47
2023-03-26T01:39:41.335Z,2.22
2023-03-26T01:42:14.222Z,2.63
2023-03-26T01:45:28.295Z,1.75
2023-03-26T01:47:55.069Z,2.17
2023-03-26T01:50:21.712Z,2.47
2023-03-26T01:52:48.163Z,2.88
2023-03-26T01:55:14.713Z,3.40
2023-03-26T01:57:50.173Z,2.13
2023-03-26T02:00:16.637Z,2.28
2023-03-26T02:02:56.632Z,2.47
2023-03-26T02:05:29.359Z,1.95
2023-03-26T02:08:02.903Z,2.13
2023-03-26T02:10:34.076Z,1.65
2023-03-26T02:13:01.344Z,2.47
2023-03-26T02:15:27.902Z,1.98
2023-03-26T02:17:54.520Z,2.75
2023-03-26T02:20:21.647Z,2.75
2023-03-26T02:22:48.485Z,2.38
2023-03-26T02:25:19.724Z,2.15
2023-03-26T02:27:49.469Z,2.40
2023-03-26T02:30:25.969Z,2.67
2023-03-26T02:32:59.112Z,3.03
2023-03-26T02:35:29.572Z,2.90
2023-03-26T02:37:59.237Z,3.45
2023-03-26T02:40:26.131Z,2.67
2023-03-26T02:42:52.991Z,3.50
2023-03-26T02:45:19.697Z,2.28
2023-03-26T02:51:02.796Z,1.98
2023-03-26T02:53:37.514Z,2.10
2023-03-26T02:56:30.157Z,2.33
2023-03-26T02:59:09.128Z,2.30
2023-03-26T03:01:36.924Z,2.42
2023-03-26T03:04:04.293Z,2.10
2023-03-26T03:06:35.057Z,2.63
2023-03-26T03:09:02.729Z,2.70
2023-03-26T03:11:35.924Z,2.55
2023-03-26T03:14:02.790Z,2.50
2023-03-26T03:16:31.269Z,2.90
2023-03-26T03:19:02.904Z,2.28
2023-03-26T03:21:36.986Z,2.72
2023-03-26T03:24:03.586Z,2.92
2023-03-26T03:26:34.298Z,3.50
2023-03-26T03:29:12.955Z,2.90
2023-03-26T03:31:41.152Z,3.15
2023-03-26T03:34:16.859Z,3.05
2023-03-26T03:36:49.981Z,3.45
2023-03-26T03:39:28.372Z,4.13
2023-03-26T03:41:54.952Z,3.97
2023-03-26T03:44:21.644Z,4.70
2023-03-26T03:46:49.277Z,4.78
2023-03-26T03:49:15.906Z,4.45
2023-03-26T03:51:42.736Z,4.05
2023-03-26T03:54:18.979Z,4.63
2023-03-26T03:56:47.220Z,3.67
2023-03-26T03:59:32.644Z,4.53
2023-03-26T04:01:59.806Z,4.50
2023-03-26T04:04:42.009Z,5.45
2023-03-26T04:07:11.720Z,4.78
2023-03-26T04:10:03.023Z,5.47
2023-03-26T04:12:49.270Z,5.28
2023-03-26T04:15:17.363Z,4.57
2023-03-26T04:17:45.421Z,5.53
2023-03-26T04:20:15.570Z,5.80
2023-03-26T04:22:44.170Z,4.25
2023-03-26T04:25:13.265Z,5.50
2023-03-26T04:27:58.435Z,4.75
2023-03-26T04:30:45.266Z,6.03
2023-03-26T04:33:32.541Z,5.20
2023-03-26T04:36:02.637Z,6.32
2023-03-26T04:38:43.781Z,4.85
2023-03-26T04:41:13.053Z,5.53
2023-03-26T04:44:02.544Z,5.95
2023-03-26T04:46:43.541Z,4.95
2023-03-26T04:49:17.047Z,5.60
2023-03-26T04:51:46.101Z,4.53
2023-03-26T04:54:32.452Z,5.65
2023-03-26T04:57:08.848Z,7.05
2023-03-26T04:59:54.939Z,5.55
2023-03-26T05:02:21.355Z,5.97
2023-03-26T05:04:51.727Z,5.53
2023-03-26T05:07:23.720Z,5.55
2023-03-26T05:09:53.599Z,5.78
2023-03-26T05:12:38.339Z,6.95
2023-03-26T05:15:10.823Z,9.60
2023-03-26T05:18:03.630Z,7.60
2023-03-26T05:20:43.364Z,11.00
2023-03-26T05:23:10.707Z,10.40
2023-03-26T05:25:41.142Z,14.88
2023-03-26T05:28:14.993Z,14.00
2023-03-26T05:30:53.186Z,9.52
2023-03-26T05:33:22.304Z,11.18
2023-03-26T05:36:02.960Z,6.60
2023-03-26T05:38:31.812Z,14.80
2023-03-26T05:41:04.470Z,12.32
2023-03-26T05:43:31.776Z,12.75
2023-03-26T05:46:20.317Z,16.52
2023-03-26T05:48:47.215Z,8.27
2023-03-26T05:51:15.698Z,6.20
2023-03-26T05:53:49.380Z,7.20
2023-03-26T05:56:51.239Z,5.78
2023-03-26T05:59:36.641Z,6.05
2023-03-26T06:02:21.819Z,7.18
2023-03-26T06:05:09.799Z,6.32
2023-03-26T06:07:52.421Z,5.50
2023-03-26T06:10:19.589Z,6.00
2023-03-26T06:12:46.240Z,6.43
2023-03-26T06:15:12.942Z,6.25
2023-03-26T06:17:58.041Z,6.53
2023-03-26T06:20:46.916Z,6.03
2023-03-26T06:23:31.047Z,6.15
2023-03-26T06:26:29.437Z,6.25
2023-03-26T06:29:16.035Z,5.25
2023-03-26T06:32:19.774Z,5.68
2023-03-26T06:34:53.259Z,6.28
2023-03-26T06:37:19.965Z,7.22
2023-03-26T06:39:47.757Z,7.10
2023-03-26T06:42:16.774Z,6.38
2023-03-26T06:45:01.782Z,5.55
2023-03-26T06:47:34.052Z,5.45
2023-03-26T06:50:19.307Z,5.90
2023-03-26T06:53:04.929Z,5.45
2023-03-26T06:55:53.558Z,6.13
2023-03-26T06:58:55.298Z,5.63
2023-03-26T07:01:31.109Z,5.05
2023-03-26T07:04:15.984Z,6.07
2023-03-26T07:07:11.612Z,5.53
2023-03-26T07:10:10.603Z,5.40
2023-03-26T07:12:47.763Z,5.18
2023-03-26T07:15:32.851Z,6.35
2023-03-26T07:18:18.239Z,6.07
2023-03-26T07:20:46.430Z,5.57
2023-03-26T07:23:15.574Z,6.25
2023-03-26T07:25:51.963Z,6.60
2023-03-26T07:29:04.779Z,5.57
2023-03-26T07:32:32.807Z,6.88
2023-03-26T07:35:28.545Z,6.32
2023-03-26T07:38:44.260Z,6.40
2023-03-26T07:41:42.942Z,6.93
2023-03-26T07:44:47.536Z,6.80
2023-03-26T07:47:34.827Z,7.20
2023-03-26T07:50:19.215Z,6.47
2023-03-26T07:53:04.482Z,7.22
2023-03-26T07:55:53.673Z,7.75
2023-03-26T07:59:05.274Z,6.32
2023-03-26T08:01:52.114Z,6.20
2023-03-26T08:05:10.376Z,6.13
2023-03-26T08:08:18.102Z,6.18
2023-03-26T08:11:22.863Z,6.57
2023-03-26T08:14:08.687Z,6.72
2023-03-26T08:16:53.292Z,6.88
2023-03-26T08:19:45.986Z,6.70
2023-03-26T08:22:56.684Z,6.72
2023-03-26T08:25:33.043Z,6.35
2023-03-26T08:28:14.021Z,5.95
2023-03-26T08:33:16.652Z,6.05
2023-03-26T08:35:44.058Z,6.50
2023-03-26T08:38:34.460Z,6.30
2023-03-26T08:41:28.724Z,6.25
2023-03-26T08:44:47.624Z,6.70
2023-03-26T08:47:22.921Z,6.63
2023-03-26T08:50:26.812Z,6.60
2023-03-26T08:53:24.437Z,6.30
2023-03-26T08:56:01.488Z,7.10
2023-03-26T08:59:22.298Z,7.30
2023-03-26T09:02:22.914Z,7.15
2023-03-26T09:05:08.177Z,8.00
2023-03-26T09:07:47.080Z,7.53
2023-03-26T09:10:28.130Z,8.20
2023-03-26T09:12:54.540Z,8.57
2023-03-26T09:15:54.781Z,8.20
2023-03-26T09:18:47.280Z,8.38
2023-03-26T09:21:34.007Z,6.45
2023-03-26T09:24:27.424Z,6.28
2023-03-26T09:27:33.397Z,9.02
2023-03-26T09:30:44.455Z,7.45
2023-03-26T09:33:22.425Z,7.00
2023-03-26T09:36:07.410Z,7.78
2023-03-26T09:38:43.826Z,6.55
2023-03-26T09:41:18.243Z,6.93
2023-03-26T09:44:10.462Z,7.18
2023-03-26T09:46:39.871Z,6.80
2023-03-26T09:49:43.768Z,8.05
2023-03-26T09:52:41.461Z,4.85
2023-03-26T09:55:28.475Z,6.28
2023-03-26T09:58:01.163Z,7.30
2023-03-26T10:00:49.417Z,7.43
2023-03-26T10:03:57.916Z,6.88
2023-03-26T10:06:48.714Z,5.45
2023-03-26T10:09:29.657Z,5.30
2023-03-26T10:12:09.652Z,5.53
2023-03-26T10:14:57.313Z,5.35
2023-03-26T10:17:55.651Z,5.88
2023-03-26T10:23:23.286Z,5.07
2023-03-26T10:26:03.146Z,5.55
2023-03-26T10:29:02.250Z,3.63
2023-03-26T10:31:51.321Z,3.97
2023-03-26T10:34:46.421Z,4.25
2023-03-26T10:37:32.470Z,5.72
2023-03-26T10:40:21.083Z,5.50
2023-03-26T10:43:19.694Z,5.28
2023-03-26T10:46:18.180Z,4.75
2023-03-26T10:49:03.477Z,4.80
2023-03-26T10:51:53.453Z,3.45
2023-03-26T10:54:31.198Z,3.88
2023-03-26T10:57:00.597Z,3.65
2023-03-26T10:59:27.513Z,4.45
2023-03-26T11:02:29.079Z,3.70
2023-03-26T11:05:22.169Z,4.68
2023-03-26T11:10:41.211Z,3.47
2023-03-26T11:13:43.132Z,2.63
2023-03-26T11:16:29.086Z,3.45
2023-03-26T11:19:16.468Z,2.50
2023-03-26T11:22:07.757Z,2.75
2023-03-26T11:25:05.467Z,3.15
2023-03-26T11:27:50.589Z,2.45
2023-03-26T11:30:32.418Z,2.80
2023-03-26T11:33:03.452Z,2.95
2023-03-26T11:35:40.858Z,3.20
2023-03-26T11:38:37.234Z,2.80
2023-03-26T11:41:11.765Z,3.05
2023-03-26T11:44:13.094Z,3.40
2023-03-26T11:46:43.704Z,2.47
2023-03-26T11:49:14.682Z,3.05
2023-03-26T11:51:43.099Z,3.63
2023-03-26T11:54:12.488Z,2.67
2023-03-26T11:57:05.914Z,9.45
2023-03-26T11:59:56.685Z,3.75
2023-03-26T12:02:38.720Z,3.50
2023-03-26T12:05:20.290Z,2.53
2023-03-26T12:07:53.546Z,2.95
2023-03-26T12:10:34.929Z,4.25
2023-03-26T12:13:19.101Z,3.00
2023-03-26T12:15:45.785Z,3.10
2023-03-26T12:18:27.415Z,3.58
2023-03-26T12:21:10.074Z,3.03
2023-03-26T12:23:43.467Z,2.85
2023-03-26T12:26:19.145Z,3.50
2023-03-26T12:28:50.186Z,2.55
2023-03-26T12:31:19.067Z,2.45
2023-03-26T12:34:07.666Z,3.05
2023-03-26T12:36:35.661Z,2.22
2023-03-26T12:40:08.661Z,1.83
2023-03-26T12:44:47.003Z,2.17
2023-03-26T12:45:22.743Z,1.75
2023-03-26T12:47:59.882Z,1.83
2023-03-26T12:50:57.062Z,6.57
2023-03-26T12:53:46.171Z,1.85
2023-03-26T12:56:43.141Z,1.73
2023-03-26T12:59:28.744Z,1.75
2023-03-26T13:02:07.058Z,1.83
2023-03-26T13:05:04.358Z,1.98
2023-03-26T13:07:50.754Z,1.90
2023-03-26T13:10:31.443Z,1.38
2023-03-26T13:13:11.468Z,1.67
2023-03-26T13:16:07.652Z,1.75
2023-03-26T13:18:53.161Z,1.67
2023-03-26T13:21:26.601Z,1.30
2023-03-26T13:24:06.178Z,1.40
2023-03-26T13:27:00.275Z,1.10
2023-03-26T13:29:56.290Z,1.50
2023-03-26T13:32:46.356Z,1.73
2023-03-26T13:35:27.305Z,1.20
2023-03-26T13:38:26.306Z,1.90
2023-03-26T13:41:11.239Z,1.10
2023-03-26T13:44:04.083Z,1.15
2023-03-26T13:46:42.591Z,1.52
2023-03-26T13:49:19.681Z,2.75
2023-03-26T13:52:00.701Z,1.27
2023-03-26T13:54:31.175Z,1.58
2023-03-26T13:59:55.608Z,1.98
2023-03-26T14:02:48.578Z,1.00
2023-03-26T14:05:26.391Z,1.95
2023-03-26T14:08:00.218Z,2.10
2023-03-26T14:10:30.998Z,1.55
2023-03-26T14:13:07.326Z,1.15
2023-03-26T14:15:45.825Z,1.27
2023-03-26T14:18:21.376Z,1.65
2023-03-26T14:21:28.605Z,1.60
2023-03-26T14:24:23.028Z,1.08
2023-03-26T14:26:58.246Z,1.00
2023-03-26T14:29:35.591Z,1.40
2023-03-26T14:32:24.136Z,1.30
2023-03-26T14:35:15.535Z,1.40
2023-03-26T14:38:07.135Z,1.25
2023-03-26T14:40:33.494Z,0.80
2023-03-26T14:43:19.617Z,1.05
2023-03-26T14:45:52.174Z,1.50
2023-03-26T14:49:02.781Z,0.90
2023-03-26T14:52:06.021Z,1.38
2023-03-26T14:54:36.923Z,1.10
2023-03-26T14:57:28.220Z,1.00
2023-03-26T15:00:25.268Z,0.93
2023-03-26T15:03:10.102Z,1.27
2023-03-26T15:05:45.767Z,1.17
2023-03-26T15:08:37.557Z,0.90
2023-03-26T15:11:41.404Z,1.55
2023-03-26T15:14:31.585Z,1.00
2023-03-26T15:17:19.452Z,1.40
2023-03-26T15:20:31.678Z,1.20
2023-03-26T15:23:17.524Z,1.23
2023-03-26T15:25:56.033Z,1.17
2023-03-26T15:28:56.458Z,1.10
2023-03-26T15:31:47.574Z,1.38
2023-03-26T15:34:34.934Z,1.27
2023-03-26T15:37:34.360Z,1.30
2023-03-26T15:40:09.874Z,1.52
2023-03-26T15:43:01.459Z,1.20
2023-03-26T15:45:27.944Z,1.13
2023-03-26T15:48:34.185Z,1.50
2023-03-26T15:51:09.794Z,1.40
2023-03-26T15:53:48.621Z,1.40
2023-03-26T15:56:43.960Z,1.63
2023-03-26T15:59:37.418Z,1.00
2023-03-26T16:02:07.443Z,1.38
2023-03-26T16:04:51.993Z,1.67
2023-03-26T16:07:26.214Z,1.10
2023-03-26T16:10:16.090Z,1.38
2023-03-26T16:13:06.317Z,1.13
2023-03-26T16:15:33.259Z,1.33
2023-03-26T16:18:12.204Z,0.98
2023-03-26T16:20:54.555Z,1.00
2023-03-26T16:23:47.722Z,1.10
2023-03-26T16:26:41.041Z,1.42
2023-03-26T16:29:29.830Z,1.27
2023-03-26T16:32:05.213Z,1.20
2023-03-26T16:34:54.875Z,1.13
2023-03-26T16:37:35.911Z,1.13
2023-03-26T16:40:17.854Z,1.10
2023-03-26T16:43:11.732Z,0.75
2023-03-26T16:45:50.566Z,0.90
2023-03-26T16:48:30.400Z,1.08
2023-03-26T16:51:22.935Z,1.52
2023-03-26T16:54:12.188Z,1.30
2023-03-26T16:56:47.530Z,0.68
2023-03-26T16:59:26.621Z,1.17
2023-03-26T17:02:06.808Z,1.02
2023-03-26T17:04:35.503Z,0.90
2023-03-26T17:07:21.714Z,0.90
2023-03-26T17:09:51.820Z,0.90
2023-03-26T17:12:30.210Z,0.65
2023-03-26T17:15:21.497Z,1.02
2023-03-26T17:18:03.461Z,0.77
2023-03-26T17:20:40.556Z,1.17
2023-03-26T17:23:40.424Z,0.77
2023-03-26T17:26:42.857Z,0.80
2023-03-26T17:29:28.898Z,1.02
2023-03-26T17:32:08.404Z,0.82
2023-03-26T17:34:55.782Z,0.93
2023-03-26T17:37:22.152Z,1.08
2023-03-26T17:39:57.862Z,1.05
2023-03-26T17:42:38.206Z,0.75
2023-03-26T17:45:17.451Z,0.70
2023-03-26T17:47:48.268Z,0.90
2023-03-26T17:50:22.603Z,0.73
2023-03-26T17:53:31.564Z,0.77
2023-03-26T17:56:03.772Z,1.48
2023-03-26T17:58:35.966Z,1.80
2023-03-26T18:01:05.471Z,1.10
2023-03-26T18:03:49.668Z,1.02
2023-03-26T18:06:57.677Z,0.85
2023-03-26T18:09:58.477Z,1.63
2023-03-26T18:12:37.756Z,0.63
2023-03-26T18:15:30.165Z,1.00
2023-03-26T18:18:11.732Z,0.90
2023-03-26T18:20:38.409Z,1.33
2023-03-26T18:23:10.673Z,1.02
2023-03-26T18:25:37.771Z,1.00
2023-03-26T18:28:05.560Z,0.82
2023-03-26T18:30:32.236Z,0.80
2023-03-26T18:33:13.576Z,0.88
2023-03-26T18:35:46.315Z,0.95
2023-03-26T18:38:37.751Z,0.95
2023-03-26T18:43:44.159Z,0.60
2023-03-26T18:46:13.932Z,0.65
2023-03-26T18:48:40.719Z,1.13
2023-03-26T18:51:07.871Z,1.17
2023-03-26T18:53:48.284Z,0.77
2023-03-26T18:56:29.846Z,0.80
2023-03-26T18:59:03.189Z,0.95
2023-03-26T19:01:32.185Z,0.82
2023-03-26T19:04:05.982Z,1.20
2023-03-26T19:06:36.084Z,0.85
2023-03-26T19:09:23.825Z,1.17
2023-03-26T19:11:57.335Z,0.77
2023-03-26T19:14:26.390Z,1.38
2023-03-26T19:16:58.758Z,1.15
2023-03-26T19:19:32.421Z,1.17
2023-03-26T19:21:59.818Z,0.95
2023-03-26T19:24:27.036Z,1.75
2023-03-26T19:26:53.956Z,1.63
2023-03-26T19:29:27.246Z,1.48
2023-03-26T19:32:15.903Z,1.35
2023-03-26T19:34:45.003Z,1.45
2023-03-26T19:37:30.683Z,0.70
2023-03-26T19:40:14.658Z,0.85
2023-03-26T19:42:44.752Z,1.13
2023-03-26T19:45:19.133Z,0.68
2023-03-26T19:47:50.141Z,0.82
2023-03-26T19:50:30.180Z,0.82
2023-03-26T19:53:16.238Z,1.00
2023-03-26T19:58:19.714Z,0.77
2023-03-26T20:00:46.235Z,0.90
2023-03-26T20:03:13.238Z,1.45
2023-03-26T20:05:39.853Z,1.52
2023-03-26T20:08:14.290Z,0.82
2023-03-26T20:10:42.433Z,1.00
2023-03-26T20:13:15.890Z,0.80
2023-03-26T20:15:47.092Z,0.75
2023-03-26T20:18:13.693Z,1.27
2023-03-26T20:20:41.306Z,0.80
2023-03-26T20:23:17.617Z,0.45
2023-03-26T20:25:52.739Z,0.85
2023-03-26T20:30:50.078Z,0.73
2023-03-26T20:33:25.364Z,1.38
2023-03-26T20:35:53.722Z,0.60
2023-03-26T20:38:24.011Z,0.77
2023-03-26T20:40:56.294Z,0.70
2023-03-26T20:43:25.071Z,0.88
2023-03-26T20:45:51.999Z,1.13
2023-03-26T20:48:18.632Z,0.80
2023-03-26T20:50:50.650Z,0.82
2023-03-26T20:53:18.823Z,0.80
2023-03-26T20:55:46.592Z,0.73
2023-03-26T20:58:14.980Z,0.95
2023-03-26T21:00:44.519Z,1.40
2023-03-26T21:03:17.001Z,0.85
2023-03-26T21:05:44.979Z,0.85
2023-03-26T21:08:18.097Z,1.05
2023-03-26T21:10:47.702Z,0.88
2023-03-26T21:13:32.294Z,0.70
2023-03-26T21:16:00.926Z,0.75
2023-03-26T21:18:28.567Z,0.65
2023-03-26T21:21:18.199Z,0.70
2023-03-26T21:24:37.263Z,0.93
2023-03-26T21:29:39.529Z,0.88
2023-03-26T21:32:06.366Z,1.10
2023-03-26T21:34:33.561Z,0.77
2023-03-26T21:37:01.583Z,1.00
2023-03-26T21:39:29.823Z,0.73
2023-03-26T21:42:05.026Z,0.90
2023-03-26T21:44:33.422Z,0.73
2023-03-26T21:47:00.568Z,1.02
2023-03-26T21:49:27.539Z,0.75
2023-03-26T21:51:54.248Z,0.60
2023-03-26T21:54:26.911Z,1.02
2023-03-26T21:57:12.550Z,0.75
2023-03-26T22:00:15.191Z,0.50
2023-03-26T22:03:16.055Z,1.05
2023-03-26T22:06:10.535Z,1.27
2023-03-26T22:08:41.363Z,1.08
2023-03-26T22:11:11.212Z,1.00
2023-03-26T22:13:39.092Z,1.25
2023-03-26T22:16:07.645Z,1.10
2023-03-26T22:18:34.670Z,0.55
2023-03-26T22:21:01.803Z,0.88
2023-03-26T22:23:36.205Z,0.73
2023-03-26T22:26:03.929Z,0.75
2023-03-26T22:28:30.861Z,1.02
2023-03-26T22:30:58.197Z,0.60
2023-03-26T22:33:24.897Z,0.70
2023-03-26T22:35:52.188Z,1.27
2023-03-26T22:38:19.090Z,0.93
2023-03-26T22:40:45.516Z,0.90
2023-03-26T22:43:12.238Z,0.50
2023-03-26T22:45:38.701Z,0.65
2023-03-26T22:48:05.301Z,0.93
2023-03-26T22:50:32.538Z,0.65
2023-03-26T22:52:59.295Z,0.90
2023-03-26T22:55:28.379Z,0.68
2023-03-26T22:57:55.807Z,1.23
2023-03-26T23:00:22.403Z,0.50
2023-03-26T23:02:49.049Z,0.60
2023-03-26T23:05:17.590Z,0.75
2023-03-26T23:07:45.945Z,0.98
2023-03-26T23:10:13.507Z,0.93
2023-03-26T23:12:40.301Z,0.88
2023-03-26T23:15:07.742Z,0.60
2023-03-26T23:17:36.046Z,0.88
2023-03-26T23:20:06.035Z,0.50
2023-03-26T23:22:32.598Z,0.55
2023-03-26T23:24:59.080Z,0.80
2023-03-26T23:27:25.576Z,0.88
2023-03-26T23:29:51.975Z,0.60
2023-03-26T23:32:23.409Z,0.60
2023-03-26T23:34:51.569Z,0.77
2023-03-26T23:37:23.094Z,0.93
2023-03-26T23:39:50.908Z,0.60
2023-03-26T23:42:17.984Z,0.80
2023-03-26T23:44:56.512Z,0.98
2023-03-26T23:47:23.048Z,0.95
2023-03-26T23:49:49.860Z,0.60
2023-03-26T23:52:16.616Z,0.80
2023-03-26T23:54:43.096Z,0.65
2023-03-26T23:57:10.460Z,0.80
2023-03-26T23:59:36.969Z,0.77
